createdAt,value
2019-04-28T00:01:58.909Z,98079.96
2019-04-28T00:04:29.276Z,98079.73
2019-04-28T00:07:02.617Z,98079.54
2019-04-28T00:09:35.416Z,98088.78
2019-04-28T00:12:09.097Z,98082.80
2019-04-28T00:14:45.639Z,98081.17
2019-04-28T00:17:21.744Z,98080.34
2019-04-28T00:19:54.426Z,98079.44
2019-04-28T00:22:46.171Z,98076.06
2019-04-28T00:25:21.564Z,98082.88
2019-04-28T00:27:51.793Z,98071.30
2019-04-28T00:30:22.265Z,98063.58
2019-04-28T00:32:58.552Z,98073.02
2019-04-28T00:35:31.878Z,98073.02
2019-04-28T00:38:06.388Z,98078.91
2019-04-28T00:40:48.481Z,98066.51
2019-04-28T00:43:24.857Z,98071.50
2019-04-28T00:45:58.186Z,98066.81
2019-04-28T00:48:28.310Z,98061.53
2019-04-28T00:50:59.339Z,98058.90
2019-04-28T00:53:31.074Z,98060.02
2019-04-28T00:56:02.183Z,98066.61
2019-04-28T00:58:32.495Z,98063.67
2019-04-28T01:03:02.172Z,98063.64
2019-04-28T01:05:32.865Z,98065.80
2019-04-28T01:08:10.983Z,98065.18
2019-04-28T01:10:44.176Z,98061.33
2019-04-28T01:13:17.519Z,98057.99
2019-04-28T01:16:06.102Z,98063.28
2019-04-28T01:18:42.467Z,98049.78
2019-04-28T01:21:12.738Z,98050.02
2019-04-28T01:23:43.257Z,98052.34
2019-04-28T01:26:14.900Z,98051.25
2019-04-28T01:28:45.011Z,98056.01
2019-04-28T01:31:29.475Z,98049.60
2019-04-28T01:34:24.289Z,98049.39
2019-04-28T01:36:54.634Z,98054.58
2019-04-28T01:39:24.745Z,98056.50
2019-04-28T01:41:55.808Z,98055.91
2019-04-28T01:44:29.640Z,98056.31
2019-04-28T01:47:06.616Z,98058.63
2019-04-28T01:49:40.619Z,98058.33
2019-04-28T01:52:11.157Z,98057.44
2019-04-28T01:54:41.324Z,98058.23
2019-04-28T01:57:11.802Z,98068.69
2019-04-28T01:59:42.585Z,98065.45
2019-04-28T02:02:12.930Z,98061.59
2019-04-28T02:04:43.193Z,98067.36
2019-04-28T02:07:13.460Z,98070.72
2019-04-28T02:09:43.669Z,98064.72
2019-04-28T02:12:13.849Z,98070.81
2019-04-28T02:14:44.195Z,98070.72
2019-04-28T02:17:14.526Z,98060.38
2019-04-28T02:19:51.522Z,98072.54
2019-04-28T02:22:40.124Z,98069.11
2019-04-28T02:25:10.768Z,98072.25
2019-04-28T02:27:40.965Z,98071.03
2019-04-28T02:30:11.926Z,98074.28
2019-04-28T02:32:45.890Z,98071.11
2019-04-28T02:35:22.320Z,98066.36
2019-04-28T02:37:53.308Z,98062.58
2019-04-28T02:40:32.830Z,98051.25
2019-04-28T02:43:12.892Z,98051.73
2019-04-28T02:45:43.637Z,98057.22
2019-04-28T02:51:10.833Z,98053.88
2019-04-28T02:53:45.522Z,98055.91
2019-04-28T02:56:15.741Z,98056.42
2019-04-28T02:58:52.799Z,98060.16
2019-04-28T03:02:55.108Z,98052.55
2019-04-28T03:05:26.227Z,98049.30
2019-04-28T03:07:56.717Z,98045.45
2019-04-28T03:10:31.012Z,98042.18
2019-04-28T03:13:04.247Z,98036.11
2019-04-28T03:15:34.569Z,98037.13
2019-04-28T03:18:08.175Z,98035.19
2019-04-28T03:20:38.439Z,98031.73
2019-04-28T03:23:11.958Z,98037.92
2019-04-28T03:25:50.608Z,98033.06
2019-04-28T03:28:52.586Z,98029.63
2019-04-28T03:32:14.145Z,98027.37
2019-04-28T03:34:23.502Z,98033.77
2019-04-28T03:36:52.170Z,98032.24
2019-04-28T03:39:22.421Z,98032.97
2019-04-28T03:41:52.606Z,98037.11
2019-04-28T03:44:22.986Z,98037.33
2019-04-28T03:46:54.910Z,98038.43
2019-04-28T03:49:32.356Z,98032.03
2019-04-28T03:52:10.873Z,98034.78
2019-04-28T03:54:44.173Z,98037.94
2019-04-28T03:57:23.235Z,98029.80
2019-04-28T03:59:57.308Z,98038.09
2019-04-28T04:02:31.210Z,98027.77
2019-04-28T04:05:05.232Z,98032.91
2019-04-28T04:07:42.862Z,98032.91
2019-04-28T04:10:20.728Z,98024.91
2019-04-28T04:12:55.773Z,98030.09
2019-04-28T04:15:50.568Z,98034.86
2019-04-28T04:18:25.708Z,98030.05
2019-04-28T04:20:55.997Z,98029.05
2019-04-28T04:23:26.402Z,98030.28
2019-04-28T04:25:56.577Z,98025.88
2019-04-28T04:28:26.732Z,98030.23
2019-04-28T04:30:57.118Z,98030.11
2019-04-28T04:33:32.958Z,98027.09
2019-04-28T04:36:03.504Z,98032.19
2019-04-28T04:38:46.092Z,98031.69
2019-04-28T04:41:17.271Z,98032.72
2019-04-28T04:43:51.490Z,98032.22
2019-04-28T04:46:24.171Z,98033.56
2019-04-28T04:48:54.483Z,98031.53
2019-04-28T04:51:24.600Z,98032.58
2019-04-28T04:53:54.849Z,98034.69
2019-04-28T04:56:25.040Z,98039.46
2019-04-28T04:58:55.359Z,98044.84
2019-04-28T05:03:10.650Z,98041.97
2019-04-28T05:05:41.971Z,98046.12
2019-04-28T05:08:15.599Z,98046.02
2019-04-28T05:10:45.852Z,98047.34
2019-04-28T05:13:16.118Z,98054.12
2019-04-28T05:15:46.351Z,98053.92
2019-04-28T05:18:20.015Z,98058.09
2019-04-28T05:20:56.387Z,98057.09
2019-04-28T05:23:40.093Z,98065.93
2019-04-28T05:26:11.356Z,98066.64
2019-04-28T05:28:51.585Z,98066.05
2019-04-28T05:31:24.096Z,98064.92
2019-04-28T05:33:52.458Z,98069.61
2019-04-28T05:36:24.974Z,98069.78
2019-04-28T05:38:55.273Z,98070.91
2019-04-28T05:41:25.624Z,98068.78
2019-04-28T05:43:56.014Z,98065.22
2019-04-28T05:46:26.629Z,98068.44
2019-04-28T05:49:10.265Z,98070.67
2019-04-28T05:51:42.722Z,98076.73
2019-04-28T05:54:31.458Z,98075.34
2019-04-28T05:57:53.299Z,98080.77
2019-04-28T06:00:49.975Z,98084.02
2019-04-28T06:03:20.814Z,98084.95
2019-04-28T06:06:06.372Z,98075.91
2019-04-28T06:09:04.055Z,98078.04
2019-04-28T06:11:35.976Z,98074.34
2019-04-28T06:14:06.615Z,98071.38
2019-04-28T06:16:37.842Z,98068.42
2019-04-28T06:19:09.726Z,98072.08
2019-04-28T06:21:49.354Z,98077.94
2019-04-28T06:24:28.890Z,98077.01
2019-04-28T06:27:01.625Z,98091.53
2019-04-28T06:29:33.520Z,98093.52
2019-04-28T06:32:04.205Z,98093.13
2019-04-28T06:34:43.001Z,98091.80
2019-04-28T06:37:13.461Z,98086.33
2019-04-28T06:39:43.954Z,98087.84
2019-04-28T06:42:14.484Z,98094.97
2019-04-28T06:44:48.271Z,98090.67
2019-04-28T06:47:18.804Z,98093.67
2019-04-28T06:49:49.431Z,98096.67
2019-04-28T06:52:23.367Z,98098.14
2019-04-28T06:54:59.996Z,98101.22
2019-04-28T06:57:30.756Z,98107.03
2019-04-28T07:03:04.074Z,98103.56
2019-04-28T07:05:40.560Z,98102.59
2019-04-28T07:08:17.076Z,98102.08
2019-04-28T07:10:55.329Z,98097.80
2019-04-28T07:13:34.623Z,98106.67
2019-04-28T07:16:05.447Z,98108.16
2019-04-28T07:18:42.768Z,98105.23
2019-04-28T07:21:19.323Z,98100.12
2019-04-28T07:23:49.974Z,98101.13
2019-04-28T07:26:20.652Z,98098.17
2019-04-28T07:28:51.086Z,98097.41
2019-04-28T07:31:23.331Z,98104.45
2019-04-28T07:33:54.203Z,98108.08
2019-04-28T07:36:24.735Z,98107.52
2019-04-28T07:38:55.122Z,98098.13
2019-04-28T07:41:26.355Z,98102.23
2019-04-28T07:44:03.030Z,98109.20
2019-04-28T07:46:33.628Z,98103.60
2019-04-28T07:49:04.204Z,98103.36
2019-04-28T07:51:46.555Z,98096.48
2019-04-28T07:54:18.736Z,98111.77
2019-04-28T07:56:56.173Z,98119.28
2019-04-28T07:59:32.763Z,98129.52
2019-04-28T08:02:14.920Z,98122.19
2019-04-28T08:04:52.249Z,98125.55
2019-04-28T08:07:22.849Z,98120.73
2019-04-28T08:09:53.165Z,98123.02
2019-04-28T08:12:24.641Z,98123.19
2019-04-28T08:14:57.395Z,98122.98
2019-04-28T08:17:27.839Z,98120.25
2019-04-28T08:19:58.244Z,98114.25
2019-04-28T08:22:29.352Z,98115.83
2019-04-28T08:25:00.443Z,98120.73
2019-04-28T08:27:34.554Z,98119.59
2019-04-28T08:30:05.218Z,98116.30
2019-04-28T08:32:44.835Z,98123.93
2019-04-28T08:35:15.428Z,98113.45
2019-04-28T08:37:49.195Z,98109.30
2019-04-28T08:40:28.087Z,98115.62
2019-04-28T08:43:02.468Z,98115.81
2019-04-28T08:45:45.202Z,98111.45
2019-04-28T08:48:24.359Z,98111.64
2019-04-28T08:50:54.691Z,98107.14
2019-04-28T08:53:26.323Z,98105.79
2019-04-28T08:56:02.690Z,98107.22
2019-04-28T08:58:45.593Z,98109.80
2019-04-28T09:03:06.454Z,98106.31
2019-04-28T09:05:54.146Z,98114.97
2019-04-28T09:08:34.379Z,98114.59
2019-04-28T09:11:06.645Z,98115.39
2019-04-28T09:13:38.061Z,98119.05
2019-04-28T09:16:08.596Z,98125.14
2019-04-28T09:18:39.789Z,98121.17
2019-04-28T09:21:16.648Z,98125.50
2019-04-28T09:23:48.506Z,98129.21
2019-04-28T09:26:19.252Z,98129.64
2019-04-28T09:28:52.776Z,98119.39
2019-04-28T09:31:24.013Z,98114.59
2019-04-28T09:33:55.372Z,98109.73
2019-04-28T09:36:33.208Z,98108.00
2019-04-28T09:39:05.955Z,98111.08
2019-04-28T09:41:41.963Z,98116.09
2019-04-28T09:44:17.157Z,98111.02
2019-04-28T09:46:49.167Z,98115.34
2019-04-28T09:49:26.698Z,98110.09
2019-04-28T09:52:05.197Z,98111.97
2019-04-28T09:54:41.365Z,98113.67
2019-04-28T09:57:12.208Z,98106.55
2019-04-28T09:59:43.411Z,98110.94
2019-04-28T10:02:26.711Z,98105.14
2019-04-28T10:04:58.834Z,98108.94
2019-04-28T10:07:34.753Z,98104.69
2019-04-28T10:10:28.190Z,98102.69
2019-04-28T10:13:05.038Z,98106.54
2019-04-28T10:15:42.260Z,98111.75
2019-04-28T10:18:14.418Z,98115.36
2019-04-28T10:20:54.620Z,98121.84
2019-04-28T10:23:26.514Z,98120.41
2019-04-28T10:26:10.010Z,98122.61
2019-04-28T10:28:44.333Z,98119.21
2019-04-28T10:31:18.737Z,98114.20
2019-04-28T10:33:56.745Z,98112.79
2019-04-28T10:36:30.278Z,98099.67
2019-04-28T10:39:25.153Z,98108.03
2019-04-28T10:41:57.859Z,98114.70
2019-04-28T10:44:30.269Z,98113.77
2019-04-28T10:47:03.857Z,98108.62
2019-04-28T10:49:34.154Z,98112.45
2019-04-28T10:52:04.921Z,98113.48
2019-04-28T10:54:35.508Z,98110.54
2019-04-28T10:57:06.006Z,98115.30
2019-04-28T11:03:00.488Z,98122.77
2019-04-28T11:05:49.294Z,98120.43
2019-04-28T11:08:38.283Z,98127.17
2019-04-28T11:11:16.759Z,98123.87
2019-04-28T11:13:51.648Z,98132.16
2019-04-28T11:16:25.767Z,98131.98
2019-04-28T11:19:14.752Z,98133.48
2019-04-28T11:21:46.298Z,98136.61
2019-04-28T11:24:28.433Z,98139.97
2019-04-28T11:27:00.748Z,98132.38
2019-04-28T11:29:35.218Z,98135.03
2019-04-28T11:32:11.547Z,98134.37
2019-04-28T11:35:20.860Z,98140.78
2019-04-28T11:37:42.894Z,98140.48
2019-04-28T11:40:27.130Z,98138.42
2019-04-28T11:42:59.775Z,98133.70
2019-04-28T11:45:33.619Z,98132.05
2019-04-28T11:48:10.506Z,98136.95
2019-04-28T11:50:53.370Z,98134.91
2019-04-28T11:53:30.150Z,98136.95
2019-04-28T11:56:00.840Z,98132.86
2019-04-28T11:58:34.301Z,98137.25
2019-04-28T12:01:06.502Z,98130.76
2019-04-28T12:03:37.421Z,98125.20
2019-04-28T12:06:11.095Z,98125.80
2019-04-28T12:08:44.936Z,98118.05
2019-04-28T12:11:31.193Z,98126.59
2019-04-28T12:14:34.863Z,98125.73
2019-04-28T12:17:24.156Z,98126.28
2019-04-28T12:20:02.942Z,98128.53
2019-04-28T12:22:45.002Z,98125.56
2019-04-28T12:25:16.628Z,98115.41
2019-04-28T12:27:58.156Z,98109.78
2019-04-28T12:30:30.045Z,98105.27
2019-04-28T12:33:01.100Z,98105.35
2019-04-28T12:35:33.239Z,98099.53
2019-04-28T12:38:19.338Z,98109.13
2019-04-28T12:41:00.345Z,98107.06
2019-04-28T12:43:31.501Z,98101.67
2019-04-28T12:46:03.619Z,98094.69
2019-04-28T12:48:38.114Z,98096.59
2019-04-28T12:51:15.207Z,98091.27
2019-04-28T12:54:05.510Z,98086.15
2019-04-28T12:56:44.977Z,98086.34
2019-04-28T13:03:31.913Z,98075.97
2019-04-28T13:06:08.799Z,98081.31
2019-04-28T13:08:39.529Z,98077.43
2019-04-28T13:11:16.893Z,98081.77
2019-04-28T13:13:47.986Z,98083.26
2019-04-28T13:16:19.176Z,98084.19
2019-04-28T13:18:53.243Z,98077.93
2019-04-28T13:21:24.048Z,98071.78
2019-04-28T13:23:56.320Z,98071.11
2019-04-28T13:26:33.354Z,98061.52
2019-04-28T13:29:10.531Z,98060.14
2019-04-28T13:31:46.013Z,98061.84
2019-04-28T13:34:21.747Z,98056.95
2019-04-28T13:36:53.229Z,98044.36
2019-04-28T13:39:32.550Z,98043.17
2019-04-28T13:42:03.569Z,98038.64
2019-04-28T13:44:54.442Z,98033.91
2019-04-28T13:47:28.383Z,98027.86
2019-04-28T13:50:22.353Z,98036.52
2019-04-28T13:52:53.910Z,98026.36
2019-04-28T13:55:57.177Z,98015.16
2019-04-28T13:58:45.540Z,98024.36
2019-04-28T14:01:23.968Z,98014.86
2019-04-28T14:04:08.957Z,98009.69
2019-04-28T14:06:43.668Z,98010.91
2019-04-28T14:09:22.598Z,98007.10
2019-04-28T14:11:53.835Z,98006.44
2019-04-28T14:14:33.672Z,98006.55
2019-04-28T14:17:22.453Z,98008.66
2019-04-28T14:20:00.233Z,98001.59
2019-04-28T14:22:30.872Z,98005.76
2019-04-28T14:25:15.213Z,98001.86
2019-04-28T14:27:48.572Z,97999.06
2019-04-28T14:30:29.693Z,98001.91
2019-04-28T14:33:00.895Z,97999.44
2019-04-28T14:35:35.577Z,97989.22
2019-04-28T14:38:12.042Z,97989.95
2019-04-28T14:43:46.447Z,97998.16
2019-04-28T14:46:16.999Z,98001.69
2019-04-28T14:48:47.714Z,97996.10
2019-04-28T14:51:18.273Z,98004.59
2019-04-28T14:53:49.034Z,98001.87
2019-04-28T14:56:20.430Z,98005.19
2019-04-28T14:58:51.264Z,98009.50
2019-04-28T15:13:33.930Z,97981.89
2019-04-28T15:16:13.571Z,98000.61
2019-04-28T15:18:45.055Z,98009.00
2019-04-28T15:21:21.407Z,98010.64
2019-04-28T15:23:56.200Z,98011.25
2019-04-28T15:26:26.956Z,98019.79
2019-04-28T15:28:57.876Z,98012.49
2019-04-28T15:31:28.765Z,98014.38
2019-04-28T15:33:59.386Z,98010.16
2019-04-28T15:36:30.414Z,98014.80
2019-04-28T15:39:03.551Z,98012.07
2019-04-28T15:41:34.404Z,98022.81
2019-04-28T15:44:07.852Z,98017.47
2019-04-28T15:46:43.427Z,98011.38
2019-04-28T15:49:17.974Z,98017.03
2019-04-28T15:51:49.381Z,98017.47
2019-04-28T15:54:20.095Z,98012.63
2019-04-28T15:56:54.169Z,98013.55
2019-04-28T15:59:27.602Z,98010.17
2019-04-28T16:01:58.476Z,98013.64
2019-04-28T16:04:31.257Z,98014.45
2019-04-28T16:07:02.157Z,98011.95
2019-04-28T16:09:41.039Z,98010.33
2019-04-28T16:12:15.269Z,98008.30
2019-04-28T16:14:46.077Z,98013.75
2019-04-28T16:17:16.606Z,98010.08
2019-04-28T16:19:47.399Z,98019.58
2019-04-28T16:22:18.069Z,98013.02
2019-04-28T16:24:49.011Z,98008.41
2019-04-28T16:27:19.601Z,98002.84
2019-04-28T16:29:50.564Z,98013.51
2019-04-28T16:32:25.173Z,98013.90
2019-04-28T16:34:55.805Z,98013.69
2019-04-28T16:37:38.535Z,98011.25
2019-04-28T16:40:01.708Z,98012.58
2019-04-28T16:42:35.687Z,98012.45
2019-04-28T16:45:13.162Z,98010.39
2019-04-28T16:47:46.060Z,98017.60
2019-04-28T16:50:16.512Z,98016.75
2019-04-28T16:52:47.304Z,98013.48
2019-04-28T16:55:21.709Z,98015.73
2019-04-28T16:58:19.537Z,98022.03
2019-04-28T17:03:12.716Z,98030.50
2019-04-28T17:05:43.396Z,98032.45
2019-04-28T17:08:25.543Z,98030.92
2019-04-28T17:10:58.755Z,98033.58
2019-04-28T17:13:29.269Z,98035.92
2019-04-28T17:15:59.762Z,98036.08
2019-04-28T17:18:31.409Z,98041.86
2019-04-28T17:21:01.986Z,98038.91
2019-04-28T17:23:32.622Z,98044.23
2019-04-28T17:28:39.628Z,98045.75
2019-04-28T17:31:10.790Z,98051.59
2019-04-28T17:33:41.251Z,98055.45
2019-04-28T17:36:11.743Z,98055.84
2019-04-28T17:38:42.428Z,98056.25
2019-04-28T17:45:00.501Z,98056.85
2019-04-28T17:51:19.934Z,98069.16
2019-04-28T17:57:50.634Z,98078.48
2019-04-28T18:07:38.312Z,98092.48
2019-04-28T18:14:09.031Z,98093.58
2019-04-28T18:23:58.786Z,98112.63
2019-04-28T18:26:29.169Z,98118.53
2019-04-28T18:28:59.481Z,98119.51
2019-04-28T18:31:51.616Z,98119.63
2019-04-28T18:34:40.135Z,98125.00
2019-04-28T18:37:41.155Z,98118.22
2019-04-28T18:40:28.483Z,98127.91
2019-04-28T18:43:05.710Z,98124.90
2019-04-28T18:45:35.927Z,98128.99
2019-04-28T18:48:06.374Z,98136.39
2019-04-28T18:50:36.678Z,98140.45
2019-04-28T18:53:07.023Z,98149.14
2019-04-28T18:55:37.234Z,98157.24
2019-04-28T18:58:07.487Z,98157.55
2019-04-28T19:03:00.500Z,98167.66
2019-04-28T19:05:33.704Z,98171.86
2019-04-28T19:08:29.005Z,98177.40
2019-04-28T19:11:09.966Z,98175.47
2019-04-28T19:13:45.307Z,98182.95
2019-04-28T19:16:30.386Z,98186.63
2019-04-28T19:19:02.658Z,98196.63
2019-04-28T19:21:33.103Z,98198.84
2019-04-28T19:24:06.559Z,98203.31
2019-04-28T19:26:43.249Z,98210.08
2019-04-28T19:29:18.138Z,98204.27
2019-04-28T19:31:48.653Z,98205.12
2019-04-28T19:34:21.866Z,98205.77
2019-04-28T19:36:52.242Z,98207.67
2019-04-28T19:39:22.536Z,98207.67
2019-04-28T19:41:52.831Z,98209.94
2019-04-28T19:44:24.534Z,98210.11
2019-04-28T19:46:54.960Z,98210.69
2019-04-28T19:49:28.258Z,98206.78
2019-04-28T19:51:59.776Z,98209.50
2019-04-28T19:54:34.459Z,98213.10
2019-04-28T19:57:17.917Z,98209.36
2019-04-28T20:00:09.103Z,98210.48
2019-04-28T20:02:39.422Z,98204.88
2019-04-28T20:05:10.196Z,98207.77
2019-04-28T20:07:41.093Z,98214.56
2019-04-28T20:10:11.498Z,98211.09
2019-04-28T20:12:48.918Z,98217.14
2019-04-28T20:15:19.308Z,98223.26
2019-04-28T20:17:49.864Z,98226.05
2019-04-28T20:20:21.633Z,98225.05
2019-04-28T20:22:52.032Z,98230.69
2019-04-28T20:25:22.576Z,98231.63
2019-04-28T20:27:52.793Z,98241.72
2019-04-28T20:30:23.615Z,98230.95
2019-04-28T20:33:06.566Z,98235.80
2019-04-28T20:35:29.869Z,98229.11
2019-04-28T20:38:10.711Z,98239.26
2019-04-28T20:40:50.006Z,98229.73
2019-04-28T20:43:21.690Z,98240.15
2019-04-28T20:45:55.205Z,98237.81
2019-04-28T20:48:28.922Z,98233.05
2019-04-28T20:50:59.608Z,98239.20
2019-04-28T20:53:29.970Z,98240.78
2019-04-28T20:56:00.643Z,98245.33
2019-04-28T20:58:31.735Z,98241.61
2019-04-28T21:02:58.302Z,98235.70
2019-04-28T21:05:29.094Z,98245.09
2019-04-28T21:08:00.879Z,98245.83
2019-04-28T21:10:38.089Z,98241.36
2019-04-28T21:13:04.071Z,98244.74
2019-04-28T21:15:37.129Z,98242.44
2019-04-28T21:18:07.659Z,98246.96
2019-04-28T21:20:41.253Z,98240.35
2019-04-28T21:23:11.773Z,98252.91
2019-04-28T21:25:42.450Z,98252.82
2019-04-28T21:28:12.918Z,98260.47
2019-04-28T21:30:43.952Z,98256.67
2019-04-28T21:33:14.407Z,98258.70
2019-04-28T21:35:50.848Z,98266.57
2019-04-28T21:38:26.103Z,98261.00
2019-04-28T21:40:56.969Z,98261.91
2019-04-28T21:43:36.279Z,98262.03
2019-04-28T21:46:25.445Z,98267.52
2019-04-28T21:49:23.623Z,98267.91
2019-04-28T21:51:54.022Z,98267.62
2019-04-28T21:54:24.370Z,98277.49
2019-04-28T21:56:54.931Z,98274.12
2019-04-28T21:59:25.360Z,98274.64
2019-04-28T22:01:56.046Z,98271.19
2019-04-28T22:04:26.414Z,98267.83
2019-04-28T22:07:00.220Z,98272.92
2019-04-28T22:09:37.337Z,98273.95
2019-04-28T22:12:11.201Z,98279.83
2019-04-28T22:14:41.412Z,98276.26
2019-04-28T22:17:11.626Z,98280.66
2019-04-28T22:19:41.922Z,98279.72
2019-04-28T22:22:13.253Z,98279.00
2019-04-28T22:24:56.580Z,98281.87
2019-04-28T22:27:42.272Z,98279.72
2019-04-28T22:30:15.594Z,98275.06
2019-04-28T22:32:52.849Z,98276.67
2019-04-28T22:35:23.984Z,98283.50
2019-04-28T22:37:54.278Z,98283.95
2019-04-28T22:40:24.410Z,98280.05
2019-04-28T22:42:54.726Z,98280.55
2019-04-28T22:45:25.201Z,98280.39
2019-04-28T22:47:56.595Z,98285.77
2019-04-28T22:50:39.960Z,98287.42
2019-04-28T22:53:11.026Z,98282.72
2019-04-28T22:55:49.893Z,98288.81
2019-04-28T22:58:36.232Z,98292.77
2019-04-28T23:03:12.634Z,98294.97
2019-04-28T23:05:43.139Z,98294.43
2019-04-28T23:08:13.402Z,98298.30
2019-04-28T23:10:43.829Z,98296.75
2019-04-28T23:13:15.196Z,98300.11
2019-04-28T23:15:45.789Z,98301.12
2019-04-28T23:18:19.562Z,98299.70
2019-04-28T23:20:52.185Z,98291.78
2019-04-28T23:23:22.823Z,98293.56
2019-04-28T23:25:56.036Z,98291.33
2019-04-28T23:28:27.683Z,98292.05
2019-04-28T23:31:01.216Z,98292.05
2019-04-28T23:33:34.105Z,98289.27
2019-04-28T23:36:04.482Z,98290.17
2019-04-28T23:38:34.898Z,98288.36
2019-04-28T23:41:22.442Z,98290.27
2019-04-28T23:43:55.365Z,98289.23
2019-04-28T23:46:44.640Z,98288.39
2019-04-28T23:49:14.998Z,98293.42
2019-04-28T23:51:52.283Z,98288.64
2019-04-28T23:54:22.875Z,98295.47
2019-04-28T23:56:53.037Z,98294.92
